sensor_id;sensor_type;location;lat;lon;timestamp;pressure;altitude;pressure_sealevel;temperature;humidity
11314;BME280;5712;48.858;9.206;2022-12-24T00:01:26;97552.78;;;11.05;100.00
11314;BME280;5712;48.858;9.206;2022-12-24T00:03:53;97566.47;;;11.10;100.00
11314;BME280;5712;48.858;9.206;2022-12-24T00:06:22;97571.75;;;11.10;100.00
11314;BME280;5712;48.858;9.206;2022-12-24T00:08:49;97576.44;;;11.07;100.00
11314;BME280;5712;48.858;9.206;2022-12-24T00:11:16;97571.66;;;11.01;100.00
11314;BME280;5712;48.858;9.206;2022-12-24T00:13:43;97587.75;;;10.98;100.00
11314;BME280;5712;48.858;9.206;2022-12-24T00:16:12;97576.34;;;10.97;100.00
11314;BME280;5712;48.858;9.206;2022-12-24T00:18:39;97581.03;;;10.94;100.00
11314;BME280;5712;48.858;9.206;2022-12-24T00:21:05;97592.31;;;10.85;100.00
11314;BME280;5712;48.858;9.206;2022-12-24T00:23:33;97595.72;;;10.76;100.00
11314;BME280;5712;48.858;9.206;2022-12-24T00:25:59;97595.44;;;10.68;100.00
11314;BME280;5712;48.858;9.206;2022-12-24T00:28:26;97602.66;;;10.66;100.00
11314;BME280;5712;48.858;9.206;2022-12-24T00:30:52;97589.44;;;10.66;100.00
11314;BME280;5712;48.858;9.206;2022-12-24T00:33:19;97568.53;;;10.74;100.00
11314;BME280;5712;48.858;9.206;2022-12-24T00:35:49;97558.69;;;10.76;100.00
11314;BME280;5712;48.858;9.206;2022-12-24T00:38:16;97567.09;;;10.70;100.00
11314;BME280;5712;48.858;9.206;2022-12-24T00:40:44;97593.41;;;10.60;100.00
11314;BME280;5712;48.858;9.206;2022-12-24T00:43:10;97597.84;;;10.60;100.00
11314;BME280;5712;48.858;9.206;2022-12-24T00:45:37;97599.31;;;10.64;100.00
11314;BME280;5712;48.858;9.206;2022-12-24T00:48:06;97585.13;;;10.65;100.00
11314;BME280;5712;48.858;9.206;2022-12-24T00:50:32;97588.25;;;10.70;100.00
11314;BME280;5712;48.858;9.206;2022-12-24T00:52:59;97598.34;;;10.76;100.00
11314;BME280;5712;48.858;9.206;2022-12-24T00:55:25;97591.97;;;10.78;100.00
11314;BME280;5712;48.858;9.206;2022-12-24T00:57:53;97603.00;;;10.83;100.00
11314;BME280;5712;48.858;9.206;2022-12-24T01:00:19;97617.78;;;10.86;100.00
11314;BME280;5712;48.858;9.206;2022-12-24T01:02:46;97611.31;;;10.90;100.00
11314;BME280;5712;48.858;9.206;2022-12-24T01:05:12;97617.56;;;10.89;100.00
11314;BME280;5712;48.858;9.206;2022-12-24T01:07:40;97626.47;;;10.88;100.00
11314;BME280;5712;48.858;9.206;2022-12-24T01:10:09;97620.81;;;10.92;100.00
11314;BME280;5712;48.858;9.206;2022-12-24T01:12:36;97626.31;;;10.89;100.00
11314;BME280;5712;48.858;9.206;2022-12-24T01:15:05;97642.06;;;10.91;100.00
11314;BME280;5712;48.858;9.206;2022-12-24T01:17:33;97646.16;;;10.95;100.00
11314;BME280;5712;48.858;9.206;2022-12-24T01:20:00;97658.16;;;10.99;100.00
11314;BME280;5712;48.858;9.206;2022-12-24T01:22:26;97676.06;;;10.95;100.00
11314;BME280;5712;48.858;9.206;2022-12-24T01:24:53;97696.59;;;10.81;100.00
11314;BME280;5712;48.858;9.206;2022-12-24T01:27:19;97716.69;;;10.72;100.00
11314;BME280;5712;48.858;9.206;2022-12-24T01:29:46;97724.22;;;10.66;100.00
11314;BME280;5712;48.858;9.206;2022-12-24T01:32:14;97735.00;;;10.63;100.00
11314;BME280;5712;48.858;9.206;2022-12-24T01:34:40;97746.91;;;10.57;100.00
11314;BME280;5712;48.858;9.206;2022-12-24T01:37:07;97752.75;;;10.50;100.00
11314;BME280;5712;48.858;9.206;2022-12-24T01:39:33;97753.22;;;10.44;100.00
11314;BME280;5712;48.858;9.206;2022-12-24T01:42:00;97759.81;;;10.38;100.00
11314;BME280;5712;48.858;9.206;2022-12-24T01:44:47;97745.72;;;10.27;100.00
11314;BME280;5712;48.858;9.206;2022-12-24T01:47:20;97761.72;;;10.13;100.00
11314;BME280;5712;48.858;9.206;2022-12-24T01:49:50;97772.50;;;10.10;100.00
11314;BME280;5712;48.858;9.206;2022-12-24T01:52:21;97774.41;;;10.08;100.00
11314;BME280;5712;48.858;9.206;2022-12-24T01:54:52;97777.78;;;10.10;100.00
11314;BME280;5712;48.858;9.206;2022-12-24T01:57:23;97778.97;;;10.06;100.00
11314;BME280;5712;48.858;9.206;2022-12-24T01:59:54;97784.53;;;10.01;100.00
11314;BME280;5712;48.858;9.206;2022-12-24T02:02:25;97808.41;;;10.00;100.00
11314;BME280;5712;48.858;9.206;2022-12-24T02:04:56;97813.69;;;10.00;100.00
11314;BME280;5712;48.858;9.206;2022-12-24T02:07:24;97810.09;;;10.01;100.00
11314;BME280;5712;48.858;9.206;2022-12-24T02:09:53;97808.41;;;10.00;100.00
11314;BME280;5712;48.858;9.206;2022-12-24T02:12:21;97808.66;;;9.97;100.00
11314;BME280;5712;48.858;9.206;2022-12-24T02:14:48;97812.22;;;9.96;100.00
11314;BME280;5712;48.858;9.206;2022-12-24T02:17:21;97811.50;;;9.94;100.00
11314;BME280;5712;48.858;9.206;2022-12-24T02:26:10;97801.78;;;9.94;100.00
11314;BME280;5712;48.858;9.206;2022-12-24T02:29:01;97817.31;;;9.86;100.00
11314;BME280;5712;48.858;9.206;2022-12-24T02:31:40;97820.09;;;9.85;100.00
11314;BME280;5712;48.858;9.206;2022-12-24T02:34:14;97826.75;;;9.78;100.00
11314;BME280;5712;48.858;9.206;2022-12-24T02:36:47;97829.59;;;9.75;100.00
11314;BME280;5712;48.858;9.206;2022-12-24T02:39:19;97820.72;;;9.76;100.00
11314;BME280;5712;48.858;9.206;2022-12-24T02:41:50;97816.69;;;9.83;100.00
11314;BME280;5712;48.858;9.206;2022-12-24T02:44:34;97821.97;;;9.83;100.00
11314;BME280;5712;48.858;9.206;2022-12-24T02:47:04;97822.91;;;9.82;100.00
11314;BME280;5712;48.858;9.206;2022-12-24T02:49:31;97831.28;;;9.76;100.00
11314;BME280;5712;48.858;9.206;2022-12-24T02:51:57;97848.19;;;9.61;100.00
11314;BME280;5712;48.858;9.206;2022-12-24T02:54:24;97851.44;;;9.52;100.00
11314;BME280;5712;48.858;9.206;2022-12-24T02:57:03;97856.09;;;9.48;100.00
11314;BME280;5712;48.858;9.206;2022-12-24T02:59:47;97846.72;;;9.44;100.00
11314;BME280;5712;48.858;9.206;2022-12-24T03:02:25;97856.00;;;9.50;100.00
11314;BME280;5712;48.858;9.206;2022-12-24T03:05:01;97856.72;;;9.52;100.00
11314;BME280;5712;48.858;9.206;2022-12-24T03:07:35;97856.53;;;9.55;100.00
11314;BME280;5712;48.858;9.206;2022-12-24T03:10:12;97868.66;;;9.57;100.00
11314;BME280;5712;48.858;9.206;2022-12-24T03:12:43;97861.38;;;9.61;100.00
11314;BME280;5712;48.858;9.206;2022-12-24T03:15:14;97867.38;;;9.63;100.00
11314;BME280;5712;48.858;9.206;2022-12-24T03:17:44;97864.03;;;9.61;100.00
11314;BME280;5712;48.858;9.206;2022-12-24T03:20:13;97859.56;;;9.61;100.00
11314;BME280;5712;48.858;9.206;2022-12-24T03:22:43;97854.28;;;9.61;100.00
11314;BME280;5712;48.858;9.206;2022-12-24T03:25:10;97876.03;;;9.65;100.00
11314;BME280;5712;48.858;9.206;2022-12-24T03:27:37;97889.97;;;9.67;100.00
11314;BME280;5712;48.858;9.206;2022-12-24T03:30:07;97880.59;;;9.63;100.00
11314;BME280;5712;48.858;9.206;2022-12-24T03:32:35;97874.56;;;9.61;100.00
11314;BME280;5712;48.858;9.206;2022-12-24T03:35:04;97873.31;;;9.54;100.00
11314;BME280;5712;48.858;9.206;2022-12-24T03:37:30;97871.59;;;9.53;100.00
11314;BME280;5712;48.858;9.206;2022-12-24T03:39:57;97870.16;;;9.49;100.00
11314;BME280;5712;48.858;9.206;2022-12-24T03:42:23;97879.03;;;9.48;100.00
11314;BME280;5712;48.858;9.206;2022-12-24T03:44:50;97897.56;;;9.46;100.00
11314;BME280;5712;48.858;9.206;2022-12-24T03:47:16;97891.44;;;9.46;100.00
11314;BME280;5712;48.858;9.206;2022-12-24T03:49:43;97889.56;;;9.48;100.00
11314;BME280;5712;48.858;9.206;2022-12-24T03:52:11;97889.75;;;9.45;100.00
11314;BME280;5712;48.858;9.206;2022-12-24T03:54:37;97886.41;;;9.43;100.00
11314;BME280;5712;48.858;9.206;2022-12-24T03:57:04;97878.16;;;9.47;100.00
11314;BME280;5712;48.858;9.206;2022-12-24T03:59:30;97876.16;;;9.51;100.00
11314;BME280;5712;48.858;9.206;2022-12-24T04:01:57;97879.75;;;9.50;100.00
11314;BME280;5712;48.858;9.206;2022-12-24T04:04:23;97886.28;;;9.44;100.00
11314;BME280;5712;48.858;9.206;2022-12-24T04:06:50;97893.78;;;9.50;100.00
11314;BME280;5712;48.858;9.206;2022-12-24T04:09:18;97883.88;;;9.54;100.00
11314;BME280;5712;48.858;9.206;2022-12-24T04:11:44;97889.56;;;9.48;100.00
11314;BME280;5712;48.858;9.206;2022-12-24T04:14:11;97912.34;;;9.49;100.00
11314;BME280;5712;48.858;9.206;2022-12-24T04:16:37;97900.13;;;9.48;100.00
11314;BME280;5712;48.858;9.206;2022-12-24T04:19:04;97906.44;;;9.45;100.00
11314;BME280;5712;48.858;9.206;2022-12-24T04:21:30;97897.69;;;9.45;100.00
11314;BME280;5712;48.858;9.206;2022-12-24T04:23:57;97903.91;;;9.44;100.00
11314;BME280;5712;48.858;9.206;2022-12-24T04:26:24;97916.38;;;9.42;100.00
11314;BME280;5712;48.858;9.206;2022-12-24T04:28:52;97919.00;;;9.42;100.00
11314;BME280;5712;48.858;9.206;2022-12-24T04:31:18;97912.97;;;9.40;100.00
11314;BME280;5712;48.858;9.206;2022-12-24T04:33:45;97909.59;;;9.38;100.00
11314;BME280;5712;48.858;9.206;2022-12-24T04:36:13;97900.94;;;9.36;100.00
11314;BME280;5712;48.858;9.206;2022-12-24T04:38:41;97899.25;;;9.35;100.00
11314;BME280;5712;48.858;9.206;2022-12-24T04:41:11;97906.66;;;9.30;100.00
11314;BME280;5712;48.858;9.206;2022-12-24T04:43:39;97903.25;;;9.28;100.00
11314;BME280;5712;48.858;9.206;2022-12-24T04:46:06;97911.16;;;9.28;100.00
11314;BME280;5712;48.858;9.206;2022-12-24T04:48:34;97921.69;;;9.28;100.00
11314;BME280;5712;48.858;9.206;2022-12-24T04:51:01;97911.16;;;9.28;100.00
11314;BME280;5712;48.858;9.206;2022-12-24T04:53:28;97917.47;;;9.25;100.00
11314;BME280;5712;48.858;9.206;2022-12-24T04:55:55;97913.47;;;9.20;100.00
11314;BME280;5712;48.858;9.206;2022-12-24T04:58:22;97933.63;;;9.21;100.00
11314;BME280;5712;48.858;9.206;2022-12-24T05:00:50;97924.03;;;9.20;100.00
11314;BME280;5712;48.858;9.206;2022-12-24T05:03:17;97920.09;;;9.13;100.00
11314;BME280;5712;48.858;9.206;2022-12-24T05:05:43;97923.69;;;9.12;100.00
11314;BME280;5712;48.858;9.206;2022-12-24T05:08:10;97923.69;;;9.12;100.00
11314;BME280;5712;48.858;9.206;2022-12-24T05:10:36;97921.16;;;9.10;100.00
11314;BME280;5712;48.858;9.206;2022-12-24T05:13:03;97903.00;;;9.06;100.00
11314;BME280;5712;48.858;9.206;2022-12-24T05:15:29;97908.16;;;8.95;100.00
11314;BME280;5712;48.858;9.206;2022-12-24T05:17:57;97921.00;;;8.87;100.00
11314;BME280;5712;48.858;9.206;2022-12-24T05:20:24;97933.72;;;8.80;100.00
11314;BME280;5712;48.858;9.206;2022-12-24T05:22:50;97926.13;;;8.76;100.00
11314;BME280;5712;48.858;9.206;2022-12-24T05:25:37;97916.94;;;8.69;100.00
11314;BME280;5712;48.858;9.206;2022-12-24T05:28:22;97923.53;;;8.62;100.00
11314;BME280;5712;48.858;9.206;2022-12-24T05:30:49;97927.41;;;8.56;100.00
11314;BME280;5712;48.858;9.206;2022-12-24T05:33:17;97923.25;;;8.52;100.00
11314;BME280;5712;48.858;9.206;2022-12-24T05:35:43;97926.59;;;8.42;100.00
11314;BME280;5712;48.858;9.206;2022-12-24T05:38:10;97927.19;;;8.33;100.00
11314;BME280;5712;48.858;9.206;2022-12-24T05:40:36;97925.03;;;8.25;100.00
11314;BME280;5712;48.858;9.206;2022-12-24T05:43:03;97919.97;;;8.22;100.00
11314;BME280;5712;48.858;9.206;2022-12-24T05:45:30;97927.97;;;8.21;100.00
11314;BME280;5712;48.858;9.206;2022-12-24T05:47:57;97923.06;;;8.15;100.00
11314;BME280;5712;48.858;9.206;2022-12-24T05:50:25;97911.66;;;8.14;100.00
11314;BME280;5712;48.858;9.206;2022-12-24T05:52:51;97927.00;;;8.08;100.00
11314;BME280;5712;48.858;9.206;2022-12-24T05:55:18;97932.66;;;8.02;100.00
11314;BME280;5712;48.858;9.206;2022-12-24T05:57:45;97931.34;;;7.95;100.00
11314;BME280;5712;48.858;9.206;2022-12-24T06:00:12;97939.50;;;7.90;100.00
11314;BME280;5712;48.858;9.206;2022-12-24T06:02:39;97939.78;;;7.86;100.00
11314;BME280;5712;48.858;9.206;2022-12-24T06:05:06;97935.00;;;7.78;100.00
11314;BME280;5712;48.858;9.206;2022-12-24T06:07:34;97943.00;;;7.77;100.00
11314;BME280;5712;48.858;9.206;2022-12-24T06:10:01;97942.16;;;7.76;100.00
11314;BME280;5712;48.858;9.206;2022-12-24T06:12:28;97964.03;;;7.77;100.00
11314;BME280;5712;48.858;9.206;2022-12-24T06:14:54;97957.06;;;7.76;100.00
11314;BME280;5712;48.858;9.206;2022-12-24T06:17:21;97952.19;;;7.70;100.00
11314;BME280;5712;48.858;9.206;2022-12-24T06:19:48;97954.72;;;7.71;100.00
11314;BME280;5712;48.858;9.206;2022-12-24T06:22:14;97955.00;;;7.67;100.00
11314;BME280;5712;48.858;9.206;2022-12-24T06:24:42;97950.19;;;7.59;100.00
11314;BME280;5712;48.858;9.206;2022-12-24T06:27:09;97962.41;;;7.60;100.00
11314;BME280;5712;48.858;9.206;2022-12-24T06:29:36;97965.81;;;7.62;100.00
11314;BME280;5712;48.858;9.206;2022-12-24T06:32:02;97961.88;;;7.69;100.00
11314;BME280;5712;48.858;9.206;2022-12-24T06:34:29;97963.09;;;7.78;100.00
11314;BME280;5712;48.858;9.206;2022-12-24T06:36:56;97971.16;;;7.75;100.00
11314;BME280;5712;48.858;9.206;2022-12-24T06:39:22;97971.38;;;7.72;100.00
11314;BME280;5712;48.858;9.206;2022-12-24T06:41:51;97967.03;;;7.71;100.00
11314;BME280;5712;48.858;9.206;2022-12-24T06:44:18;97974.16;;;7.69;100.00
11314;BME280;5712;48.858;9.206;2022-12-24T06:46:45;97974.09;;;7.70;100.00
11314;BME280;5712;48.858;9.206;2022-12-24T06:49:11;97986.13;;;7.74;100.00
11314;BME280;5712;48.858;9.206;2022-12-24T06:51:38;97995.78;;;7.74;100.00
11314;BME280;5712;48.858;9.206;2022-12-24T06:54:05;98000.88;;;7.77;100.00
11314;BME280;5712;48.858;9.206;2022-12-24T06:56:32;98002.38;;;7.81;100.00
11314;BME280;5712;48.858;9.206;2022-12-24T06:59:01;98003.69;;;7.88;100.00
11314;BME280;5712;48.858;9.206;2022-12-24T07:01:27;98004.81;;;7.98;100.00
11314;BME280;5712;48.858;9.206;2022-12-24T07:03:54;98004.44;;;8.04;100.00
11314;BME280;5712;48.858;9.206;2022-12-24T07:06:25;98005.31;;;8.04;100.00
11314;BME280;5712;48.858;9.206;2022-12-24T07:08:53;97997.13;;;8.09;100.00
11314;BME280;5712;48.858;9.206;2022-12-24T07:11:20;98006.13;;;8.05;100.00
11314;BME280;5712;48.858;9.206;2022-12-24T07:13:47;98013.28;;;8.03;100.00
11314;BME280;5712;48.858;9.206;2022-12-24T07:16:15;98015.56;;;7.95;100.00
11314;BME280;5712;48.858;9.206;2022-12-24T07:18:42;98017.25;;;7.96;100.00
11314;BME280;5712;48.858;9.206;2022-12-24T07:21:09;98015.94;;;8.03;100.00
11314;BME280;5712;48.858;9.206;2022-12-24T07:23:36;98020.25;;;8.04;100.00
11314;BME280;5712;48.858;9.206;2022-12-24T07:26:04;98033.56;;;8.01;100.00
11314;BME280;5712;48.858;9.206;2022-12-24T07:28:31;98031.34;;;7.95;100.00
11314;BME280;5712;48.858;9.206;2022-12-24T07:30:58;98041.28;;;7.90;100.00
11314;BME280;5712;48.858;9.206;2022-12-24T07:33:26;98050.66;;;7.80;100.00
11314;BME280;5712;48.858;9.206;2022-12-24T07:35:58;98051.31;;;7.83;100.00
11314;BME280;5712;48.858;9.206;2022-12-24T07:38:25;98049.34;;;7.73;100.00
11314;BME280;5712;48.858;9.206;2022-12-24T07:40:52;98043.50;;;7.68;100.00
11314;BME280;5712;48.858;9.206;2022-12-24T07:43:19;98059.94;;;7.71;100.00
11314;BME280;5712;48.858;9.206;2022-12-24T07:45:45;98057.41;;;7.70;100.00
11314;BME280;5712;48.858;9.206;2022-12-24T07:48:12;98052.31;;;7.67;100.00
11314;BME280;5712;48.858;9.206;2022-12-24T07:50:40;98051.97;;;7.73;100.00
11314;BME280;5712;48.858;9.206;2022-12-24T07:53:07;98055.19;;;7.78;100.00
11314;BME280;5712;48.858;9.206;2022-12-24T07:55:35;98065.50;;;7.81;100.00
11314;BME280;5712;48.858;9.206;2022-12-24T07:58:01;98058.63;;;7.78;100.00
11314;BME280;5712;48.858;9.206;2022-12-24T08:00:28;98060.44;;;7.78;100.00
11314;BME280;5712;48.858;9.206;2022-12-24T08:02:54;98056.13;;;7.77;100.00
11314;BME280;5712;48.858;9.206;2022-12-24T08:05:22;98057.03;;;7.76;100.00
11314;BME280;5712;48.858;9.206;2022-12-24T08:07:50;98060.44;;;7.78;100.00
11314;BME280;5712;48.858;9.206;2022-12-24T08:10:17;98061.75;;;7.85;100.00
11314;BME280;5712;48.858;9.206;2022-12-24T08:12:43;98061.56;;;7.88;100.00
11314;BME280;5712;48.858;9.206;2022-12-24T08:15:10;98070.41;;;7.87;100.00
11314;BME280;5712;48.858;9.206;2022-12-24T08:17:37;98082.97;;;7.82;100.00
11314;BME280;5712;48.858;9.206;2022-12-24T08:20:05;98086.56;;;7.81;100.00
11314;BME280;5712;48.858;9.206;2022-12-24T08:22:31;98085.81;;;7.79;100.00
11314;BME280;5712;48.858;9.206;2022-12-24T08:24:59;98082.06;;;7.83;100.00
11314;BME280;5712;48.858;9.206;2022-12-24T08:27:25;98092.13;;;7.90;100.00
11314;BME280;5712;48.858;9.206;2022-12-24T08:29:52;98096.94;;;7.98;100.00
11314;BME280;5712;48.858;9.206;2022-12-24T08:32:18;98087.16;;;8.00;100.00
11314;BME280;5712;48.858;9.206;2022-12-24T08:34:45;98098.53;;;8.00;100.00
11314;BME280;5712;48.858;9.206;2022-12-24T08:37:11;98101.09;;;8.02;100.00
11314;BME280;5712;48.858;9.206;2022-12-24T08:39:38;98100.88;;;8.05;100.00
11314;BME280;5712;48.858;9.206;2022-12-24T08:42:06;98099.00;;;8.07;100.00
11314;BME280;5712;48.858;9.206;2022-12-24T08:44:32;98107.59;;;8.10;100.00
11314;BME280;5712;48.858;9.206;2022-12-24T08:46:59;98115.56;;;8.09;100.00
11314;BME280;5712;48.858;9.206;2022-12-24T08:49:25;98113.97;;;8.06;100.00
11314;BME280;5712;48.858;9.206;2022-12-24T08:51:52;98111.41;;;8.05;100.00
11314;BME280;5712;48.858;9.206;2022-12-24T08:54:18;98122.88;;;8.04;100.00
11314;BME280;5712;48.858;9.206;2022-12-24T08:56:46;98123.75;;;8.04;100.00
11314;BME280;5712;48.858;9.206;2022-12-24T08:59:14;98122.16;;;8.02;100.00
11314;BME280;5712;48.858;9.206;2022-12-24T09:01:40;98122.16;;;8.02;100.00
11314;BME280;5712;48.858;9.206;2022-12-24T09:04:07;98129.19;;;8.01;100.00
11314;BME280;5712;48.858;9.206;2022-12-24T09:06:35;98126.47;;;8.03;100.00
11314;BME280;5712;48.858;9.206;2022-12-24T09:09:02;98130.78;;;8.04;100.00
11314;BME280;5712;48.858;9.206;2022-12-24T09:11:28;98141.31;;;8.04;100.00
11314;BME280;5712;48.858;9.206;2022-12-24T09:13:55;98130.69;;;8.05;100.00
11314;BME280;5712;48.858;9.206;2022-12-24T09:16:23;98142.84;;;8.08;100.00
11314;BME280;5712;48.858;9.206;2022-12-24T09:18:49;98139.06;;;8.12;100.00
11314;BME280;5712;48.858;9.206;2022-12-24T09:21:16;98145.28;;;8.11;100.00
11314;BME280;5712;48.858;9.206;2022-12-24T09:23:44;98157.41;;;8.13;100.00
11314;BME280;5712;48.858;9.206;2022-12-24T09:26:13;98161.00;;;8.12;100.00
11314;BME280;5712;48.858;9.206;2022-12-24T09:28:40;98157.25;;;8.16;100.00
11314;BME280;5712;48.858;9.206;2022-12-24T09:31:08;98157.13;;;8.18;100.00
11314;BME280;5712;48.858;9.206;2022-12-24T09:33:38;98165.34;;;8.27;100.00
11314;BME280;5712;48.858;9.206;2022-12-24T09:36:05;98167.53;;;8.35;100.00
11314;BME280;5712;48.858;9.206;2022-12-24T09:38:32;98161.75;;;8.44;100.00
11314;BME280;5712;48.858;9.206;2022-12-24T09:41:00;98170.69;;;8.55;100.00
11314;BME280;5712;48.858;9.206;2022-12-24T09:43:30;98169.06;;;8.67;100.00
11314;BME280;5712;48.858;9.206;2022-12-24T09:46:05;98170.38;;;8.74;100.00
11314;BME280;5712;48.858;9.206;2022-12-24T09:48:37;98170.22;;;8.77;100.00
11314;BME280;5712;48.858;9.206;2022-12-24T09:51:07;98162.69;;;8.85;100.00
11314;BME280;5712;48.858;9.206;2022-12-24T09:53:38;98160.91;;;8.85;100.00
11314;BME280;5712;48.858;9.206;2022-12-24T09:56:11;98157.25;;;8.88;100.00
11314;BME280;5712;48.858;9.206;2022-12-24T09:58:44;98164.00;;;8.92;100.00
11314;BME280;5712;48.858;9.206;2022-12-24T10:01:12;98169.81;;;8.97;100.00
11314;BME280;5712;48.858;9.206;2022-12-24T10:03:41;98170.41;;;9.02;100.00
11314;BME280;5712;48.858;9.206;2022-12-24T10:06:09;98175.13;;;9.11;100.00
11314;BME280;5712;48.858;9.206;2022-12-24T10:08:45;98172.19;;;9.15;100.00
11314;BME280;5712;48.858;9.206;2022-12-24T10:11:19;98166.59;;;9.20;100.00
11314;BME280;5712;48.858;9.206;2022-12-24T10:13:58;98167.56;;;9.19;100.00
11314;BME280;5712;48.858;9.206;2022-12-24T10:16:37;98164.84;;;9.20;100.00
11314;BME280;5712;48.858;9.206;2022-12-24T10:19:13;98174.50;;;9.20;100.00
11314;BME280;5712;48.858;9.206;2022-12-24T10:21:49;98175.47;;;9.19;100.00
11314;BME280;5712;48.858;9.206;2022-12-24T10:24:23;98175.38;;;9.20;100.00
11314;BME280;5712;48.858;9.206;2022-12-24T10:26:54;98169.06;;;9.23;100.00
11314;BME280;5712;48.858;9.206;2022-12-24T10:29:26;98173.28;;;9.25;100.00
11314;BME280;5712;48.858;9.206;2022-12-24T10:31:57;98180.53;;;9.36;100.00
11314;BME280;5712;48.858;9.206;2022-12-24T10:34:29;98181.22;;;9.52;100.00
11314;BME280;5712;48.858;9.206;2022-12-24T10:36:58;98185.53;;;9.67;100.00
11314;BME280;5712;48.858;9.206;2022-12-24T10:39:29;98186.44;;;9.80;100.00
11314;BME280;5712;48.858;9.206;2022-12-24T10:41:57;98185.41;;;9.95;100.00
11314;BME280;5712;48.858;9.206;2022-12-24T10:44:29;98175.22;;;10.03;100.00
11314;BME280;5712;48.858;9.206;2022-12-24T10:46:57;98184.63;;;10.07;100.00
11314;BME280;5712;48.858;9.206;2022-12-24T10:49:30;98194.38;;;10.06;100.00
11314;BME280;5712;48.858;9.206;2022-12-24T10:52:02;98183.81;;;10.06;100.00
11314;BME280;5712;48.858;9.206;2022-12-24T10:54:29;98191.59;;;10.08;100.00
11314;BME280;5712;48.858;9.206;2022-12-24T10:57:04;98193.09;;;10.12;100.00
11314;BME280;5712;48.858;9.206;2022-12-24T10:59:35;98199.13;;;10.14;100.00
11314;BME280;5712;48.858;9.206;2022-12-24T11:02:27;98194.38;;;10.19;100.00
11314;BME280;5712;48.858;9.206;2022-12-24T11:04:56;98184.38;;;10.24;100.00
11314;BME280;5712;48.858;9.206;2022-12-24T11:07:24;98178.75;;;10.28;100.00
11314;BME280;5712;48.858;9.206;2022-12-24T11:09:56;98187.69;;;10.40;100.00
11314;BME280;5712;48.858;9.206;2022-12-24T11:12:24;98176.06;;;10.42;100.00
11314;BME280;5712;48.858;9.206;2022-12-24T11:15:00;98178.78;;;10.41;100.00
11314;BME280;5712;48.858;9.206;2022-12-24T11:17:27;98183.84;;;10.44;100.00
11314;BME280;5712;48.858;9.206;2022-12-24T11:19:55;98186.50;;;10.44;100.00
11314;BME280;5712;48.858;9.206;2022-12-24T11:22:24;98188.94;;;10.47;100.00
11314;BME280;5712;48.858;9.206;2022-12-24T11:25:01;98187.69;;;10.52;100.00
11314;BME280;5712;48.858;9.206;2022-12-24T11:27:31;98194.34;;;10.58;100.00
11314;BME280;5712;48.858;9.206;2022-12-24T11:30:19;98200.56;;;10.57;100.00
11314;BME280;5712;48.858;9.206;2022-12-24T11:32:47;98193.50;;;10.57;100.00
11314;BME280;5712;48.858;9.206;2022-12-24T11:35:18;98191.50;;;10.61;100.00
11314;BME280;5712;48.858;9.206;2022-12-24T11:37:46;98202.69;;;10.52;100.00
11314;BME280;5712;48.858;9.206;2022-12-24T11:40:23;98189.69;;;10.49;100.00
11314;BME280;5712;48.858;9.206;2022-12-24T11:42:51;98182.81;;;10.46;100.00
11314;BME280;5712;48.858;9.206;2022-12-24T11:45:22;98187.44;;;10.43;100.00
11314;BME280;5712;48.858;9.206;2022-12-24T11:47:50;98188.31;;;10.43;100.00
11314;BME280;5712;48.858;9.206;2022-12-24T11:50:25;98188.72;;;10.50;100.00
11314;BME280;5712;48.858;9.206;2022-12-24T11:52:57;98180.59;;;10.53;100.00
11314;BME280;5712;48.858;9.206;2022-12-24T11:55:34;98174.16;;;10.44;100.00
11314;BME280;5712;48.858;9.206;2022-12-24T11:58:11;98183.44;;;10.37;100.00
11314;BME280;5712;48.858;9.206;2022-12-24T12:00:43;98170.19;;;10.25;100.00
11314;BME280;5712;48.858;9.206;2022-12-24T12:03:22;98169.66;;;10.20;100.00
11314;BME280;5712;48.858;9.206;2022-12-24T12:05:54;98178.31;;;10.09;100.00
11314;BME280;5712;48.858;9.206;2022-12-24T12:08:21;98173.88;;;10.10;100.00
11314;BME280;5712;48.858;9.206;2022-12-24T12:10:50;98166.28;;;10.05;100.00
11314;BME280;5712;48.858;9.206;2022-12-24T12:13:19;98164.78;;;10.14;100.00
11314;BME280;5712;48.858;9.206;2022-12-24T12:15:52;98164.19;;;10.23;100.00
11314;BME280;5712;48.858;9.206;2022-12-24T12:18:27;98161.72;;;10.20;100.00
11314;BME280;5712;48.858;9.206;2022-12-24T12:21:02;98161.00;;;10.18;100.00
11314;BME280;5712;48.858;9.206;2022-12-24T12:23:31;98164.38;;;10.20;100.00
11314;BME280;5712;48.858;9.206;2022-12-24T12:26:03;98172.00;;;10.24;100.00
11314;BME280;5712;48.858;9.206;2022-12-24T12:28:36;98171.16;;;10.24;100.00
11314;BME280;5712;48.858;9.206;2022-12-24T12:31:10;98172.00;;;10.24;100.00
11314;BME280;5712;48.858;9.206;2022-12-24T12:33:41;98183.84;;;10.31;100.00
11314;BME280;5712;48.858;9.206;2022-12-24T12:36:14;98192.59;;;10.32;100.00
11314;BME280;5712;48.858;9.206;2022-12-24T12:38:43;98190.59;;;10.35;100.00
11314;BME280;5712;48.858;9.206;2022-12-24T12:41:23;98197.38;;;10.39;100.00
11314;BME280;5712;48.858;9.206;2022-12-24T12:44:12;98201.44;;;10.45;100.00
11314;BME280;5712;48.858;9.206;2022-12-24T12:46:58;98204.81;;;10.47;100.00
11314;BME280;5712;48.858;9.206;2022-12-24T12:49:38;98201.00;;;10.51;100.00
11314;BME280;5712;48.858;9.206;2022-12-24T12:52:13;98202.28;;;10.58;100.00
11314;BME280;5712;48.858;9.206;2022-12-24T12:54:54;98205.25;;;10.66;100.00
11314;BME280;5712;48.858;9.206;2022-12-24T12:57:28;98202.69;;;10.64;100.00
11314;BME280;5712;48.858;9.206;2022-12-24T13:00:01;98201.66;;;10.67;100.00
11314;BME280;5712;48.858;9.206;2022-12-24T13:02:44;98198.28;;;10.65;100.00
11314;BME280;5712;48.858;9.206;2022-12-24T13:05:41;98199.97;;;10.66;100.00
11314;BME280;5712;48.858;9.206;2022-12-24T13:08:33;98206.09;;;10.66;100.00
11314;BME280;5712;48.858;9.206;2022-12-24T13:11:20;98197.84;;;10.71;100.00
11314;BME280;5712;48.858;9.206;2022-12-24T13:14:13;98189.91;;;10.83;100.00
11314;BME280;5712;48.858;9.206;2022-12-24T13:19:59;98191.28;;;10.89;100.00
11314;BME280;5712;48.858;9.206;2022-12-24T13:22:30;98190.97;;;10.93;100.00
11314;BME280;5712;48.858;9.206;2022-12-24T13:24:58;98190.97;;;11.06;100.00
11314;BME280;5712;48.858;9.206;2022-12-24T13:27:26;98198.56;;;11.10;100.00
11314;BME280;5712;48.858;9.206;2022-12-24T13:29:55;98195.72;;;11.01;100.00